createdAt,value
2022-12-24T00:00:03.769Z,6.79
2022-12-24T00:01:03.851Z,6.79
2022-12-24T00:02:04.269Z,6.89
2022-12-24T00:03:04.355Z,6.85
2022-12-24T00:04:04.552Z,6.88
2022-12-24T00:05:04.730Z,6.84
2022-12-24T00:06:04.982Z,6.82
2022-12-24T00:07:05.256Z,6.87
2022-12-24T00:08:05.419Z,6.82
2022-12-24T00:09:05.645Z,6.88
2022-12-24T00:10:05.869Z,6.81
2022-12-24T00:11:06.095Z,6.82
2022-12-24T00:12:06.473Z,6.81
2022-12-24T00:13:06.537Z,6.89
2022-12-24T00:14:06.766Z,6.87
2022-12-24T00:15:07.005Z,6.85
2022-12-24T00:16:07.188Z,6.84
2022-12-24T00:17:07.562Z,6.93
2022-12-24T00:18:07.634Z,6.92
2022-12-24T00:19:07.872Z,6.87
2022-12-24T00:20:08.088Z,6.87
2022-12-24T00:21:08.301Z,6.82
2022-12-24T00:22:08.570Z,6.87
2022-12-24T00:23:08.786Z,6.84
2022-12-24T00:24:08.966Z,6.79
2022-12-24T00:25:09.206Z,6.85
2022-12-24T00:26:09.439Z,6.77
2022-12-24T00:27:09.666Z,6.82
2022-12-24T00:28:09.935Z,6.87
2022-12-24T00:29:10.133Z,6.84
2022-12-24T00:30:10.430Z,6.89
2022-12-24T00:31:10.673Z,6.82
2022-12-24T00:32:10.828Z,6.78
2022-12-24T00:33:11.035Z,6.79
2022-12-24T00:34:11.237Z,6.81
2022-12-24T00:35:11.435Z,6.79
2022-12-24T00:36:11.639Z,6.81
2022-12-24T00:37:11.978Z,6.79
2022-12-24T00:38:12.019Z,6.81
2022-12-24T00:39:12.227Z,6.79
2022-12-24T00:40:12.415Z,6.82
2022-12-24T00:41:12.613Z,6.78
2022-12-24T00:42:12.821Z,6.79
2022-12-24T00:43:13.017Z,6.81
2022-12-24T00:44:13.173Z,6.81
2022-12-24T00:45:13.388Z,6.78
2022-12-24T00:46:13.631Z,6.72
2022-12-24T00:47:13.779Z,6.66
2022-12-24T00:48:13.960Z,6.69
2022-12-24T00:49:14.171Z,6.63
2022-12-24T00:50:14.369Z,6.67
2022-12-24T00:51:14.695Z,6.67
2022-12-24T00:52:15.183Z,6.69
2022-12-24T00:53:15.074Z,6.62
2022-12-24T00:54:15.314Z,6.57
2022-12-24T00:55:15.588Z,6.62
2022-12-24T00:56:16.021Z,6.62
2022-12-24T00:57:15.989Z,6.57
2022-12-24T00:58:16.219Z,6.60
2022-12-24T00:59:16.457Z,6.63
2022-12-24T01:00:16.671Z,6.64
2022-12-24T01:01:17.027Z,6.60
2022-12-24T01:02:17.436Z,6.64
2022-12-24T01:03:17.405Z,6.70
2022-12-24T01:04:17.584Z,6.66
2022-12-24T01:05:17.800Z,6.59
2022-12-24T01:06:18.034Z,6.67
2022-12-24T01:07:18.221Z,6.64
2022-12-24T01:08:18.437Z,6.54
2022-12-24T01:09:18.750Z,6.62
2022-12-24T01:10:18.907Z,6.54
2022-12-24T01:11:19.130Z,6.52
2022-12-24T01:12:19.362Z,6.52
2022-12-24T01:13:19.603Z,6.56
2022-12-24T01:14:19.878Z,6.57
2022-12-24T01:15:20.070Z,6.56
2022-12-24T01:16:20.473Z,6.59
2022-12-24T01:17:20.527Z,6.57
2022-12-24T01:18:20.691Z,6.54
2022-12-24T01:19:20.898Z,6.60
2022-12-24T01:20:21.136Z,6.51
2022-12-24T01:21:21.340Z,6.52
2022-12-24T01:22:21.527Z,6.49
2022-12-24T01:23:21.706Z,6.52
2022-12-24T01:24:21.903Z,6.54
2022-12-24T01:25:22.115Z,6.59
2022-12-24T01:26:22.310Z,6.59
2022-12-24T01:27:22.534Z,6.51
2022-12-24T01:28:22.727Z,6.56
2022-12-24T01:29:22.931Z,6.57
2022-12-24T01:30:23.104Z,6.49
2022-12-24T01:31:23.414Z,6.51
2022-12-24T01:32:23.513Z,6.54
2022-12-24T01:33:23.785Z,6.49
2022-12-24T01:34:23.954Z,6.52
2022-12-24T01:35:24.110Z,6.46
2022-12-24T01:36:24.320Z,6.60
2022-12-24T01:37:24.510Z,6.49
2022-12-24T01:38:24.989Z,6.51
2022-12-24T01:39:24.936Z,6.56
2022-12-24T01:40:25.132Z,6.57
2022-12-24T01:41:25.345Z,6.59
2022-12-24T01:42:25.551Z,6.56
2022-12-24T01:43:25.845Z,6.52
2022-12-24T01:44:31.259Z,6.46
2022-12-24T01:45:26.229Z,6.48
2022-12-24T01:46:26.568Z,6.49
2022-12-24T01:47:26.710Z,6.52
2022-12-24T01:48:26.977Z,6.52
2022-12-24T01:49:27.176Z,6.56
2022-12-24T01:50:27.407Z,6.49
2022-12-24T01:51:27.643Z,6.52
2022-12-24T01:52:27.875Z,6.42
2022-12-24T01:53:28.147Z,6.46
2022-12-24T01:54:28.358Z,6.45
2022-12-24T01:55:28.595Z,6.45
2022-12-24T01:56:28.832Z,6.51
2022-12-24T01:57:29.084Z,6.48
2022-12-24T01:58:29.276Z,6.49
2022-12-24T01:59:29.497Z,6.56
2022-12-24T02:00:29.786Z,6.49
2022-12-24T02:01:30.156Z,6.52
2022-12-24T02:02:30.487Z,6.45
2022-12-24T02:03:30.518Z,6.49
2022-12-24T02:04:30.730Z,6.46
2022-12-24T02:05:31.007Z,6.52
2022-12-24T02:06:31.219Z,6.48
2022-12-24T02:07:31.528Z,6.48
2022-12-24T02:08:31.744Z,6.46
2022-12-24T02:09:31.943Z,6.38
2022-12-24T02:10:32.265Z,6.35
2022-12-24T02:11:32.435Z,6.42
2022-12-24T02:12:32.683Z,6.38
2022-12-24T02:13:32.939Z,6.46
2022-12-24T02:14:33.184Z,6.49
2022-12-24T02:15:33.466Z,6.45
2022-12-24T02:16:33.817Z,6.51
2022-12-24T02:17:33.912Z,6.45
2022-12-24T02:18:34.141Z,6.52
2022-12-24T02:19:34.447Z,6.54
2022-12-24T02:20:34.663Z,6.52
2022-12-24T02:21:34.854Z,6.41
2022-12-24T02:22:35.077Z,6.46
2022-12-24T02:23:35.320Z,6.49
2022-12-24T02:24:35.566Z,6.52
2022-12-24T02:25:35.821Z,6.48
2022-12-24T02:26:36.014Z,6.49
2022-12-24T02:27:36.230Z,6.51
2022-12-24T02:28:36.465Z,6.44
2022-12-24T02:29:36.649Z,6.45
2022-12-24T02:30:36.887Z,6.52
2022-12-24T02:31:37.113Z,6.51
2022-12-24T02:32:37.285Z,6.49
2022-12-24T02:33:37.472Z,6.49
2022-12-24T02:34:37.657Z,6.45
2022-12-24T02:35:37.864Z,6.54
2022-12-24T02:36:38.092Z,6.52
2022-12-24T02:37:38.306Z,6.51
2022-12-24T02:38:38.620Z,6.52
2022-12-24T02:39:38.732Z,6.49
2022-12-24T02:40:38.943Z,6.48
2022-12-24T02:41:39.157Z,6.52
2022-12-24T02:42:39.373Z,6.52
2022-12-24T02:43:39.604Z,6.52
2022-12-24T02:44:39.892Z,6.51
2022-12-24T02:45:39.969Z,6.54
2022-12-24T02:46:40.268Z,6.52
2022-12-24T02:47:40.369Z,6.49
2022-12-24T02:48:40.562Z,6.46
2022-12-24T02:49:40.792Z,6.44
2022-12-24T02:50:40.959Z,6.56
2022-12-24T02:51:41.155Z,6.49
2022-12-24T02:52:41.364Z,6.54
2022-12-24T02:53:41.577Z,6.51
2022-12-24T02:54:41.811Z,6.54
2022-12-24T02:55:42.017Z,6.54
2022-12-24T02:56:42.208Z,6.56
2022-12-24T02:57:42.411Z,6.49
2022-12-24T02:58:42.618Z,6.52
2022-12-24T02:59:42.861Z,6.51
2022-12-24T03:00:43.107Z,6.54
2022-12-24T03:01:43.525Z,6.49
2022-12-24T03:02:43.573Z,6.51
2022-12-24T03:03:43.694Z,6.49
2022-12-24T03:04:43.947Z,6.49
2022-12-24T03:05:44.126Z,6.49
2022-12-24T03:06:44.326Z,6.51
2022-12-24T03:07:44.616Z,6.42
2022-12-24T03:08:44.766Z,6.45
2022-12-24T03:09:44.977Z,6.48
2022-12-24T03:10:45.235Z,6.44
2022-12-24T03:11:45.388Z,6.35
2022-12-24T03:12:45.598Z,6.45
2022-12-24T03:13:45.801Z,6.38
2022-12-24T03:14:46.042Z,6.42
2022-12-24T03:15:46.271Z,6.33
2022-12-24T03:16:46.559Z,6.35
2022-12-24T03:17:46.666Z,6.44
2022-12-24T03:18:46.876Z,6.39
2022-12-24T03:19:47.098Z,6.33
2022-12-24T03:20:47.337Z,6.48
2022-12-24T03:21:47.491Z,6.42
2022-12-24T03:22:47.696Z,6.46
2022-12-24T03:23:47.932Z,6.49
2022-12-24T03:24:48.095Z,6.36
2022-12-24T03:25:48.369Z,6.33
2022-12-24T03:26:48.526Z,6.35
2022-12-24T03:27:48.739Z,6.33
2022-12-24T03:28:48.982Z,6.31
2022-12-24T03:29:49.174Z,6.38
2022-12-24T03:30:49.454Z,6.35
2022-12-24T03:31:49.719Z,6.44
2022-12-24T03:32:49.843Z,6.41
2022-12-24T03:33:50.048Z,6.41
2022-12-24T03:34:50.261Z,6.39
2022-12-24T03:35:50.484Z,6.35
2022-12-24T03:36:50.658Z,6.38
2022-12-24T03:37:50.876Z,6.33
2022-12-24T03:38:51.091Z,6.39
2022-12-24T03:39:51.336Z,6.36
2022-12-24T03:40:51.528Z,6.35
2022-12-24T03:41:51.706Z,6.31
2022-12-24T03:42:51.910Z,6.24
2022-12-24T03:43:52.114Z,6.30
2022-12-24T03:44:52.388Z,6.30
2022-12-24T03:45:52.620Z,6.26
2022-12-24T03:46:52.850Z,6.30
2022-12-24T03:47:53.090Z,6.24
2022-12-24T03:48:53.301Z,6.39
2022-12-24T03:49:53.953Z,6.38
2022-12-24T03:50:53.770Z,6.35
2022-12-24T03:51:54.009Z,6.35
2022-12-24T03:52:54.255Z,6.35
2022-12-24T03:53:54.489Z,6.38
2022-12-24T03:54:54.757Z,6.38
2022-12-24T03:55:54.978Z,6.41
2022-12-24T03:56:55.212Z,6.35
2022-12-24T03:57:55.453Z,6.33
2022-12-24T03:58:55.683Z,6.44
2022-12-24T03:59:56.003Z,6.30
2022-12-24T04:00:56.192Z,6.42
2022-12-24T04:01:56.628Z,6.33
2022-12-24T04:02:56.663Z,6.36
2022-12-24T04:03:56.871Z,6.38
2022-12-24T04:04:57.125Z,6.35
2022-12-24T04:05:57.451Z,6.39
2022-12-24T04:06:57.588Z,6.36
2022-12-24T04:07:57.804Z,6.46
2022-12-24T04:08:58.024Z,6.35
2022-12-24T04:09:58.262Z,6.31
2022-12-24T04:10:58.535Z,6.35
2022-12-24T04:11:58.777Z,6.44
2022-12-24T04:12:59.015Z,6.33
2022-12-24T04:13:59.217Z,6.42
2022-12-24T04:14:59.467Z,6.35
2022-12-24T04:15:59.862Z,6.31
2022-12-24T04:17:00.186Z,6.38
2022-12-24T04:18:00.168Z,6.35
2022-12-24T04:19:00.411Z,6.41
2022-12-24T04:20:00.681Z,6.41
2022-12-24T04:21:00.897Z,6.41
2022-12-24T04:22:01.159Z,6.36
2022-12-24T04:23:01.353Z,6.39
2022-12-24T04:24:01.588Z,6.35
2022-12-24T04:25:01.837Z,6.42
2022-12-24T04:26:02.086Z,6.42
2022-12-24T04:27:02.623Z,6.35
2022-12-24T04:28:02.516Z,6.38
2022-12-24T04:29:02.778Z,6.41
2022-12-24T04:30:03.115Z,6.46
2022-12-24T04:31:03.217Z,6.36
2022-12-24T04:32:03.544Z,6.38
2022-12-24T04:33:03.689Z,6.36
2022-12-24T04:34:03.938Z,6.33
2022-12-24T04:35:04.186Z,6.39
2022-12-24T04:36:04.526Z,6.33
2022-12-24T04:37:04.670Z,6.33
2022-12-24T04:38:04.908Z,6.35
2022-12-24T04:39:05.168Z,6.41
2022-12-24T04:40:05.362Z,6.39
2022-12-24T04:41:05.589Z,6.36
2022-12-24T04:42:05.829Z,6.33
2022-12-24T04:43:06.046Z,6.36
2022-12-24T04:44:06.216Z,6.31
2022-12-24T04:45:06.423Z,6.41
2022-12-24T04:46:06.687Z,6.44
2022-12-24T04:47:06.892Z,6.49
2022-12-24T04:48:07.060Z,6.35
2022-12-24T04:49:07.279Z,6.38
2022-12-24T04:50:07.504Z,6.45
2022-12-24T04:51:07.663Z,6.46
2022-12-24T04:52:07.879Z,6.45
2022-12-24T04:53:08.135Z,6.44
2022-12-24T04:54:08.340Z,6.38
2022-12-24T04:55:08.576Z,6.35
2022-12-24T04:56:08.826Z,6.38
2022-12-24T04:57:09.052Z,6.41
2022-12-24T04:58:09.347Z,6.31
2022-12-24T04:59:09.530Z,6.31
2022-12-24T05:00:09.770Z,6.42
2022-12-24T05:01:10.159Z,6.44
2022-12-24T05:02:10.475Z,6.39
2022-12-24T05:03:10.902Z,6.39
2022-12-24T05:04:10.719Z,6.35
2022-12-24T05:05:10.975Z,6.35
2022-12-24T05:06:11.220Z,6.38
2022-12-24T05:07:11.453Z,6.38
2022-12-24T05:08:11.703Z,6.31
2022-12-24T05:09:11.939Z,6.39
2022-12-24T05:10:12.336Z,6.39
2022-12-24T05:11:12.403Z,6.35
2022-12-24T05:12:12.641Z,6.31
2022-12-24T05:13:12.877Z,6.30
2022-12-24T05:14:13.126Z,6.35
2022-12-24T05:15:13.495Z,6.38
2022-12-24T05:16:13.732Z,6.38
2022-12-24T05:17:13.959Z,6.35
2022-12-24T05:18:14.071Z,6.36
2022-12-24T05:19:14.513Z,6.35
2022-12-24T05:20:14.655Z,6.33
2022-12-24T05:21:14.781Z,6.33
2022-12-24T05:22:15.023Z,6.36
2022-12-24T05:23:15.253Z,6.41
2022-12-24T05:24:15.508Z,6.35
2022-12-24T05:25:15.820Z,6.36
2022-12-24T05:26:15.994Z,6.42
2022-12-24T05:27:16.225Z,6.42
2022-12-24T05:28:16.465Z,6.36
2022-12-24T05:29:16.663Z,6.41
2022-12-24T05:30:16.957Z,6.39
2022-12-24T05:31:17.170Z,6.35
2022-12-24T05:32:17.366Z,6.44
2022-12-24T05:33:17.562Z,6.38
2022-12-24T05:34:17.881Z,6.49
2022-12-24T05:35:18.147Z,6.39
2022-12-24T05:36:18.266Z,6.49
2022-12-24T05:37:18.476Z,6.44
2022-12-24T05:38:18.695Z,6.52
2022-12-24T05:39:18.925Z,6.41
2022-12-24T05:40:19.206Z,6.51
2022-12-24T05:41:19.367Z,6.48
2022-12-24T05:42:19.586Z,6.48
2022-12-24T05:43:19.807Z,6.48
2022-12-24T05:44:20.029Z,6.51
2022-12-24T05:45:20.272Z,6.46
2022-12-24T05:46:20.563Z,6.44
2022-12-24T05:47:20.734Z,6.46
2022-12-24T05:48:20.897Z,6.41
2022-12-24T05:49:21.119Z,6.45
2022-12-24T05:50:21.327Z,6.38
2022-12-24T05:51:21.571Z,6.41
2022-12-24T05:52:21.758Z,6.49
2022-12-24T05:53:21.975Z,6.54
2022-12-24T05:54:22.177Z,6.52
2022-12-24T05:55:22.436Z,6.56
2022-12-24T05:56:22.644Z,6.48
2022-12-24T05:57:22.836Z,6.49
2022-12-24T05:58:23.055Z,6.48
2022-12-24T05:59:23.315Z,6.52
2022-12-24T06:00:23.515Z,6.45
2022-12-24T06:01:23.781Z,6.49
2022-12-24T06:02:24.022Z,6.44
2022-12-24T06:03:24.276Z,6.46
2022-12-24T06:04:28.589Z,6.44
2022-12-24T06:05:24.634Z,6.51
2022-12-24T06:06:24.856Z,6.48
2022-12-24T06:07:25.077Z,6.46
2022-12-24T06:08:25.363Z,6.45
2022-12-24T06:09:25.508Z,6.46
2022-12-24T06:10:25.679Z,6.49
2022-12-24T06:11:25.900Z,6.41
2022-12-24T06:12:26.144Z,6.48
2022-12-24T06:13:26.315Z,6.35
2022-12-24T06:14:26.534Z,6.44
2022-12-24T06:15:26.733Z,6.38
2022-12-24T06:16:27.082Z,6.52
2022-12-24T06:17:27.181Z,6.49
2022-12-24T06:18:27.335Z,6.49
2022-12-24T06:19:27.540Z,6.51
2022-12-24T06:20:27.742Z,6.52
2022-12-24T06:21:27.947Z,6.51
2022-12-24T06:22:28.201Z,6.46
2022-12-24T06:23:28.369Z,6.54
2022-12-24T06:24:28.629Z,6.57
2022-12-24T06:25:28.786Z,6.56
2022-12-24T06:26:28.992Z,6.60
2022-12-24T06:27:29.199Z,6.72
2022-12-24T06:28:29.408Z,6.69
2022-12-24T06:29:29.647Z,6.67
2022-12-24T06:30:29.820Z,6.66
2022-12-24T06:31:30.084Z,6.57
2022-12-24T06:32:30.246Z,6.60
2022-12-24T06:33:30.441Z,6.60
2022-12-24T06:34:30.693Z,6.57
2022-12-24T06:35:30.874Z,6.67
2022-12-24T06:36:31.087Z,6.66
2022-12-24T06:37:31.262Z,6.70
2022-12-24T06:38:31.463Z,6.63
2022-12-24T06:39:31.806Z,6.60
2022-12-24T06:40:31.896Z,6.60
2022-12-24T06:41:32.179Z,6.64
2022-12-24T06:42:32.302Z,6.69
2022-12-24T06:43:32.515Z,6.69
2022-12-24T06:44:32.776Z,6.66
2022-12-24T06:45:32.931Z,6.70
2022-12-24T06:46:33.232Z,6.66
2022-12-24T06:47:33.369Z,6.66
2022-12-24T06:48:33.557Z,6.74
2022-12-24T06:49:33.791Z,6.64
2022-12-24T06:50:33.964Z,6.75
2022-12-24T06:51:34.214Z,6.66
2022-12-24T06:52:34.391Z,6.78
2022-12-24T06:53:34.627Z,6.70
2022-12-24T06:54:34.838Z,6.69
2022-12-24T06:55:35.038Z,6.72
2022-12-24T06:56:35.280Z,6.69
2022-12-24T06:57:35.462Z,6.75
2022-12-24T06:58:35.690Z,6.81
2022-12-24T06:59:35.877Z,6.75
2022-12-24T07:00:36.094Z,6.77
2022-12-24T07:01:36.495Z,6.75
2022-12-24T07:02:36.685Z,6.78
2022-12-24T07:03:36.792Z,6.89
2022-12-24T07:04:36.929Z,6.79
2022-12-24T07:05:37.141Z,6.82
2022-12-24T07:06:37.420Z,6.82
2022-12-24T07:07:37.548Z,6.79
2022-12-24T07:08:37.756Z,6.79
2022-12-24T07:09:37.945Z,6.88
2022-12-24T07:10:38.148Z,6.82
2022-12-24T07:11:38.391Z,6.82
2022-12-24T07:12:38.583Z,6.79
2022-12-24T07:13:38.777Z,6.87
2022-12-24T07:14:38.984Z,6.88
2022-12-24T07:15:39.255Z,6.84
2022-12-24T07:16:39.575Z,6.89
2022-12-24T07:17:39.935Z,6.88
2022-12-24T07:18:39.811Z,6.84
2022-12-24T07:19:40.371Z,6.87
2022-12-24T07:20:40.206Z,6.87
2022-12-24T07:21:40.399Z,6.93
2022-12-24T07:22:40.637Z,6.84
2022-12-24T07:23:40.822Z,6.95
2022-12-24T07:24:41.043Z,6.88
2022-12-24T07:25:41.240Z,6.89
2022-12-24T07:26:41.463Z,6.93
2022-12-24T07:27:41.778Z,6.99
2022-12-24T07:28:41.929Z,6.92
2022-12-24T07:29:42.190Z,6.99
2022-12-24T07:30:42.415Z,6.85
2022-12-24T07:31:42.701Z,6.84
2022-12-24T07:32:42.919Z,6.89
2022-12-24T07:33:43.156Z,6.87
2022-12-24T07:34:43.415Z,6.85
2022-12-24T07:35:43.605Z,6.93
2022-12-24T07:36:43.847Z,6.84
2022-12-24T07:37:44.078Z,6.85
2022-12-24T07:38:44.307Z,6.82
2022-12-24T07:39:44.560Z,6.95
2022-12-24T07:40:44.755Z,6.95
2022-12-24T07:41:44.989Z,6.89
2022-12-24T07:42:45.165Z,6.95
2022-12-24T07:43:45.365Z,6.93
2022-12-24T07:44:45.581Z,6.93
2022-12-24T07:45:45.821Z,6.99
2022-12-24T07:46:46.235Z,6.92
2022-12-24T07:47:46.283Z,6.93
2022-12-24T07:48:46.484Z,6.97
2022-12-24T07:49:46.723Z,6.89
2022-12-24T07:50:46.959Z,6.97
2022-12-24T07:51:47.232Z,6.95
2022-12-24T07:52:47.419Z,6.96
2022-12-24T07:53:47.656Z,7.00
2022-12-24T07:54:47.899Z,6.99
2022-12-24T07:55:48.142Z,7.02
2022-12-24T07:56:48.414Z,6.95
2022-12-24T07:57:48.625Z,6.96
2022-12-24T07:58:48.849Z,7.00
2022-12-24T07:59:49.080Z,7.05
2022-12-24T08:00:49.315Z,6.97
2022-12-24T08:01:49.786Z,6.99
2022-12-24T08:02:50.013Z,6.93
2022-12-24T08:03:50.229Z,7.03
2022-12-24T08:04:50.245Z,7.02
2022-12-24T08:05:50.472Z,6.96
2022-12-24T08:06:50.754Z,6.99
2022-12-24T08:07:50.961Z,7.02
2022-12-24T08:08:51.241Z,7.02
2022-12-24T08:09:51.449Z,6.99
2022-12-24T08:10:51.688Z,7.00
2022-12-24T08:11:52.682Z,7.03
2022-12-24T08:12:52.204Z,7.05
2022-12-24T08:13:52.461Z,6.97
2022-12-24T08:14:52.709Z,7.00
2022-12-24T08:15:52.965Z,7.15
2022-12-24T08:16:53.219Z,7.13
2022-12-24T08:17:53.387Z,7.10
2022-12-24T08:18:53.598Z,7.06
2022-12-24T08:19:53.871Z,7.10
2022-12-24T08:20:54.086Z,7.11
2022-12-24T08:21:54.329Z,7.05
2022-12-24T08:22:54.558Z,7.11
2022-12-24T08:23:54.809Z,7.00
2022-12-24T08:24:55.075Z,7.13
2022-12-24T08:25:55.338Z,7.10
2022-12-24T08:26:55.543Z,7.13
2022-12-24T08:27:55.783Z,7.02
2022-12-24T08:28:56.004Z,7.02
2022-12-24T08:29:56.237Z,7.00
2022-12-24T08:30:56.656Z,7.15
2022-12-24T08:31:56.795Z,7.11
2022-12-24T08:32:56.952Z,7.07
2022-12-24T08:33:57.183Z,7.02
2022-12-24T08:34:57.411Z,7.15
2022-12-24T08:35:57.800Z,7.15
2022-12-24T08:36:57.900Z,7.11
2022-12-24T08:37:58.139Z,7.14
2022-12-24T08:38:58.382Z,7.17
2022-12-24T08:39:58.650Z,7.17
2022-12-24T08:40:58.929Z,7.14
2022-12-24T08:41:59.259Z,7.21
2022-12-24T08:42:59.541Z,7.20
2022-12-24T08:43:59.638Z,7.15
2022-12-24T08:44:59.879Z,7.20
2022-12-24T08:46:00.158Z,7.17
2022-12-24T08:47:00.330Z,7.10
2022-12-24T08:48:00.868Z,7.21
2022-12-24T08:49:00.771Z,7.24
2022-12-24T08:50:01.032Z,7.14
2022-12-24T08:51:01.244Z,7.28
2022-12-24T08:52:01.480Z,7.29
2022-12-24T08:53:01.806Z,7.20
2022-12-24T08:54:01.948Z,7.13
2022-12-24T08:55:02.177Z,7.24
2022-12-24T08:56:02.422Z,7.24
2022-12-24T08:57:02.658Z,7.14
2022-12-24T08:58:02.954Z,7.23
2022-12-24T08:59:03.122Z,7.25
2022-12-24T09:00:03.361Z,7.32
2022-12-24T09:01:03.797Z,7.35
2022-12-24T09:02:03.934Z,7.42
2022-12-24T09:03:04.250Z,7.42
2022-12-24T09:04:04.262Z,7.36
2022-12-24T09:05:04.539Z,7.40
2022-12-24T09:06:04.757Z,7.35
2022-12-24T09:07:04.952Z,7.38
2022-12-24T09:08:05.182Z,7.43
2022-12-24T09:09:05.459Z,7.39
2022-12-24T09:10:05.668Z,7.40
2022-12-24T09:11:05.892Z,7.47
2022-12-24T09:12:06.133Z,7.54
2022-12-24T09:13:06.390Z,7.53
2022-12-24T09:14:06.586Z,7.54
2022-12-24T09:15:06.833Z,7.60
2022-12-24T09:16:07.133Z,7.58
2022-12-24T09:17:07.394Z,7.72
2022-12-24T09:18:07.559Z,7.75
2022-12-24T09:19:07.761Z,7.79
2022-12-24T09:20:07.993Z,7.77
2022-12-24T09:21:08.257Z,7.82
2022-12-24T09:22:08.450Z,7.85
2022-12-24T09:23:08.707Z,7.79
2022-12-24T09:24:08.895Z,7.91
2022-12-24T09:25:09.124Z,7.91
2022-12-24T09:26:09.357Z,8.03
2022-12-24T09:27:09.568Z,8.06
2022-12-24T09:28:09.950Z,8.09
2022-12-24T09:29:10.089Z,8.05
2022-12-24T09:30:10.248Z,8.08
2022-12-24T09:31:10.486Z,8.09
2022-12-24T09:32:10.782Z,8.12
2022-12-24T09:33:10.940Z,8.13
2022-12-24T09:34:11.152Z,8.13
2022-12-24T09:35:11.349Z,8.13
2022-12-24T09:36:11.565Z,8.19
2022-12-24T09:37:11.761Z,8.18
2022-12-24T09:38:12.011Z,8.23
